Old Westbury, New York
Current Conditions -  °F | °C
As of 4:53 AM on Sunday 26 Oct 2014 (Local Time) from KFRG Reporting Station
Scattered Clouds Scattered Clouds  
Wind Chill: 57°   Ceiling: Unl
Heat Index: 57°   Visibility: 10mi
Dew Point: 47°   Wind: 13mph
Humidity: 69%   Direction: 330°NNW
Pressure: 29.57"   Gusts: NA
Location:  40.79°N, 73.6°W
Report Text: KFRG 260853Z AUTO 33011KT 10SM FEW065 SCT090 14/08 A2957 RMK AO2 SLP013 T01390083 53004
Loading
Personal Weather Stations






























Interactive Weather Map
Tropical Storm Tracking
New forecast layout! Learn more

10-Day Weather Forecast

Advertisements
Track Severe Weather on mobile